Home   Weather   United Kingdom   Manchester   Past weeks
Flag for United Kingdom

Past Weather in Manchester, England, United Kingdom — Yesterday and Last 2 Weeks

Currently: 68 °F. Scattered clouds. (Weather station: Manchester Airport, United Kingdom). See more current weather

Past Weather in Manchester — Graph

°F

Manchester Temperature Yesterday

Maximum temperature yesterday: 66 °F (at 2:20 pm)
Minimum temperature yesterday: 54 °F (at 11:50 pm)
Average temperature yesterday: 59 °F

High & Low Weather Summary for the Past Weeks

 TemperatureHumidityPressure
High86 °F (Jul 22, 3:50 pm)100% (Jul 20, 5:50 am)30.24 "Hg (Jul 20, 5:50 am)
Low46 °F (Aug 3, 4:50 am)38% (Jul 22, 4:50 pm)29.56 "Hg (Jul 30, 7:50 am)
Average64 °F77%29.90 "Hg
* Reported Jul 19 2:20 pm — Aug 3 2:20 pm, Manchester. Weather by CustomWeather, © 2021

Note: Actual official high and low records may vary slightly from our data, if they occured in-between our weather recording intervals... More about our weather records

Manchester Weather History for the Previous 24 Hours

Scroll right to see more
 ConditionsComfort  
Time TempWeatherWind HumidityBarometerVisibility
2:20 pm
Tue, Aug 3
68 °FMild.7 mph53%29.89 "HgN/A
1:50 pm68 °FMild.5 mph53%29.92 "HgN/A
1:20 pm66 °FPassing clouds.2 mph56%29.92 "HgN/A
12:50 pm66 °FBroken clouds.6 mph56%29.92 "HgN/A
12:20 pm66 °FScattered clouds.3 mph60%29.92 "HgN/A
11:50 am64 °FPassing clouds.3 mph60%29.92 "HgN/A
11:20 am64 °FMild.3 mph64%29.92 "HgN/A
10:50 am63 °FMild.2 mph68%29.95 "HgN/A
10:20 am63 °FPassing clouds.3 mph68%29.95 "HgN/A
9:50 am63 °FMild.2 mph68%29.95 "HgN/A
9:20 am59 °FCool.2 mph72%29.95 "HgN/A
8:50 am59 °FCool.2 mph72%29.95 "HgN/A
8:20 am55 °FCool.2 mph88%29.95 "HgN/A
7:50 am54 °FCool.2 mph88%29.95 "HgN/A
7:20 am50 °FPassing clouds.1 mph94%29.95 "HgN/A
6:50 am48 °FCool.1 mph94%29.92 "HgN/A
6:20 am46 °FCool.2 mph93%29.92 "HgN/A
5:50 am46 °FCool.2 mph93%29.95 "HgN/A
5:20 am46 °FHaze.1 mph93%29.95 "Hg1 mi
4:50 am46 °FCool.1 mph100%29.95 "HgN/A
4:20 am48 °FCool.No wind94%29.95 "HgN/A
3:50 am48 °FCool.1 mph94%29.95 "HgN/A
3:20 am48 °FCool.2 mph94%29.95 "HgN/A
2:50 am48 °FCool.2 mph87%29.95 "HgN/A
2:20 am50 °FPassing clouds.1 mph94%29.95 "HgN/A
1:50 am50 °FPassing clouds.2 mph94%29.95 "HgN/A
12:20 am52 °FPassing clouds.2 mph88%29.95 "HgN/A
11:50 pm
Mon, Aug 2
54 °FPassing clouds.1 mph82%29.95 "HgN/A
11:20 pm55 °FPassing clouds.2 mph77%29.98 "HgN/A
10:50 pm55 °FCool.1 mph77%29.98 "HgN/A
10:20 pm57 °FCool.2 mph72%29.98 "HgN/A
9:50 pm55 °FCool.5 mph77%29.98 "HgN/A
9:20 pm57 °FCool.5 mph72%29.98 "HgN/A
8:50 pm59 °FCool.6 mph68%29.95 "HgN/A
8:20 pm59 °FCool.7 mph68%29.95 "HgN/A
7:50 pm61 °FCool.8 mph68%29.95 "HgN/A
7:20 pm61 °FCool.9 mph68%29.95 "HgN/A
6:50 pm61 °FCool.8 mph68%29.95 "HgN/A
6:20 pm63 °FMild.10 mph68%29.95 "HgN/A
5:50 pm63 °FMild.9 mph64%29.95 "HgN/A
5:20 pm63 °FMild.9 mph64%29.95 "HgN/A
4:50 pm64 °FMild.9 mph60%29.95 "HgN/A
4:20 pm64 °FScattered clouds.8 mph64%29.95 "HgN/A
3:50 pm64 °FPassing clouds.7 mph60%29.95 "HgN/A
3:20 pm64 °FMild.7 mph60%29.95 "HgN/A
Weather by CustomWeather, © 2021

See weather overview